Air Quality Table

TIMESTAMP NO2 SO2 O3 PM10 PM2.5 CO TEMP HUM AIRPRES WS WD NO BENZENE
2023-06-08 12:00 32.02 µg/m3 0.32 µg/m3 80.64 µg/m3 27.35 µg/m3 10.92 µg/m3 0.31 mg/m3 23.58 °C 57.35 % 1,015.32 mbar 3.85 m/s 54.55 Deg 35.43 µg/m3 2.41 µg/m3
2023-06-08 11:00 40 µg/m3 0.34 µg/m3 74.01 µg/m3 38.17 µg/m3 12.86 µg/m3 0.3 mg/m3 24.47 °C 50.94 % 1,015.40 mbar 1.88 m/s 21.28 Deg 25.23 µg/m3 2.52 µg/m3
2023-06-08 10:00 45.4 µg/m3 0.44 µg/m3 67.63 µg/m3 35.51 µg/m3 12.82 µg/m3 0.35 mg/m3 24.44 °C 51.63 % 1,015.35 mbar 2.2 m/s 33.43 Deg 35.38 µg/m3 2.1 µg/m3
2023-06-08 09:00 39.75 µg/m3 0.26 µg/m3 61.82 µg/m3 25.45 µg/m3 9.86 µg/m3 0.25 mg/m3 24.31 °C 52.02 % 1,015.31 mbar 1.09 m/s 290.23 Deg 14.62 µg/m3 2.15 µg/m3
2023-06-08 08:00 52.29 µg/m3 0.26 µg/m3 49.64 µg/m3 28.52 µg/m3 10.84 µg/m3 0.29 mg/m3 22.97 °C 56.25 % 1,015.12 mbar 0.96 m/s 296.68 Deg 15.29 µg/m3 3.1 µg/m3
2023-06-08 07:00 74.42 µg/m3 0.43 µg/m3 21.91 µg/m3 27.13 µg/m3 10.99 µg/m3 0.4 mg/m3 21.97 °C 57.48 % 1,014.89 mbar 0.82 m/s 243.6 Deg 25.77 µg/m3 3.15 µg/m3
2023-06-08 06:00 61.26 µg/m3 0.37 µg/m3 14.8 µg/m3 26.94 µg/m3 14.12 µg/m3 0.36 mg/m3 20.42 °C 67.81 % 1,014.73 mbar 0.98 m/s 229.43 Deg 19.5 µg/m3 2.36 µg/m3
2023-06-08 05:00 37.59 µg/m3 0.16 µg/m3 28.27 µg/m3 23.24 µg/m3 16.67 µg/m3 0.23 mg/m3 20.08 °C 73.72 % 1,014.57 mbar 0.82 m/s 233.57 Deg 4.81 µg/m3 1.42 µg/m3
2023-06-08 04:00 21.8 µg/m3 0.03 µg/m3 42.21 µg/m3 20.72 µg/m3 15.95 µg/m3 0.18 mg/m3 20.36 °C 76.76 % 1,014.71 mbar 0.71 m/s 229.47 Deg 0.82 µg/m3 1.15 µg/m3
2023-06-08 03:00 15.86 µg/m3 0.01 µg/m3 53.72 µg/m3 17.64 µg/m3 14.68 µg/m3 0.16 mg/m3 20.69 °C 76.81 % 1,015.00 mbar 0.64 m/s 239.23 Deg 0.2 µg/m3 1.26 µg/m3
2023-06-08 02:00 14.29 µg/m3 0.01 µg/m3 68.51 µg/m3 15.92 µg/m3 13.34 µg/m3 0.16 mg/m3 20.98 °C 77.07 % 1,015.44 mbar 0.6 m/s 250.58 Deg 0.21 µg/m3 1.94 µg/m3
2023-06-08 01:00 18.95 µg/m3 0.04 µg/m3 65.63 µg/m3 17.06 µg/m3 14.36 µg/m3 0.18 mg/m3 21.07 °C 77.97 % 1,015.77 mbar 0.91 m/s 243.2 Deg 0.28 µg/m3 1.89 µg/m3
2023-06-08 00:00 18.6 µg/m3 0.02 µg/m3 67.33 µg/m3 15.69 µg/m3 13.12 µg/m3 0.2 mg/m3 21.22 °C 79.84 % 1,016.06 mbar 0.93 m/s 302.38 Deg 0.6 µg/m3 1.36 µg/m3
2023-06-07 23:00 20.77 µg/m3 0.09 µg/m3 63.64 µg/m3 19.42 µg/m3 15.87 µg/m3 0.24 mg/m3 21.42 °C 81.32 % 1,016.14 mbar 0.92 m/s 289.95 Deg 0.91 µg/m3 1.52 µg/m3
2023-06-07 22:00 20.22 µg/m3 0.15 µg/m3 79.14 µg/m3 17.94 µg/m3 13.95 µg/m3 0.28 mg/m3 21.74 °C 78.08 % 1,015.99 mbar 1.06 m/s 303 Deg 3.03 µg/m3 1.52 µg/m3
2023-06-07 21:00 25.08 µg/m3 0.15 µg/m3 76.83 µg/m3 18.51 µg/m3 13.45 µg/m3 0.3 mg/m3 22.02 °C 75.77 % 1,015.80 mbar 1.02 m/s 316.65 Deg 4.19 µg/m3 1.78 µg/m3
2023-06-07 20:00 31.07 µg/m3 0.12 µg/m3 82.01 µg/m3 20.18 µg/m3 13.77 µg/m3 0.28 mg/m3 22.35 °C 71.3 % 1,015.36 mbar 1.27 m/s 314.55 Deg 3.59 µg/m3 2.47 µg/m3
2023-06-07 19:00 31.64 µg/m3 0.16 µg/m3 88.46 µg/m3 22.04 µg/m3 11.31 µg/m3 0.3 mg/m3 23.12 °C 62.3 % 1,015.08 mbar 1.41 m/s 343.88 Deg 10.8 µg/m3 1.73 µg/m3
2023-06-07 18:00 32 µg/m3 0.13 µg/m3 93.36 µg/m3 23.3 µg/m3 11.84 µg/m3 0.25 mg/m3 23.82 °C 55.41 % 1,014.83 mbar 1.77 m/s 25.88 Deg 13.6 µg/m3 1.78 µg/m3
2023-06-07 17:00 22.57 µg/m3 0.19 µg/m3 99.88 µg/m3 20.43 µg/m3 10.04 µg/m3 0.21 mg/m3 23.81 °C 53.31 % 1,014.95 mbar 2.33 m/s 33.02 Deg 16.74 µg/m3 2.2 µg/m3
2023-06-07 16:00 22.65 µg/m3 0.19 µg/m3 99.67 µg/m3 19.19 µg/m3 10.08 µg/m3 0.21 mg/m3 23.88 °C 55.55 % 1,015.17 mbar 2.47 m/s 34.05 Deg 10.75 µg/m3 1.73 µg/m3
2023-06-07 15:00 24.35 µg/m3 0.09 µg/m3 100.15 µg/m3 19.87 µg/m3 10.57 µg/m3 0.22 mg/m3 24.13 °C 51.88 % 1,015.45 mbar 2.25 m/s 31.47 Deg 13.88 µg/m3 1.31 µg/m3
2023-06-07 14:00 20.23 µg/m3 0.08 µg/m3 99.19 µg/m3 22.61 µg/m3 10.86 µg/m3 0.17 mg/m3 24.1 °C 53.04 % 1,015.71 mbar 2.3 m/s 109.85 Deg 10.01 µg/m3 1.42 µg/m3

It is to be noted that the data is provisional and subject to quality assurance procedures. For validated data kindly refer your request to contact.air@era.org.mt